sensor_id;sensor_type;location;lat;lon;timestamp;temperature;humidity
60909;DHT22;46780;48.128;-1.704;2022-08-27T00:01:51;19.60;75.60
60909;DHT22;46780;48.128;-1.704;2022-08-27T00:04:19;19.60;75.60
60909;DHT22;46780;48.128;-1.704;2022-08-27T00:06:45;19.60;75.70
60909;DHT22;46780;48.128;-1.704;2022-08-27T00:09:12;19.60;75.60
60909;DHT22;46780;48.128;-1.704;2022-08-27T00:11:38;19.60;75.50
60909;DHT22;46780;48.128;-1.704;2022-08-27T00:14:05;19.50;75.50
60909;DHT22;46780;48.128;-1.704;2022-08-27T00:16:31;19.60;75.70
60909;DHT22;46780;48.128;-1.704;2022-08-27T00:18:58;19.50;75.80
60909;DHT22;46780;48.128;-1.704;2022-08-27T00:21:26;19.50;76.00
60909;DHT22;46780;48.128;-1.704;2022-08-27T00:23:52;19.50;76.10
60909;DHT22;46780;48.128;-1.704;2022-08-27T00:26:19;19.50;76.10
60909;DHT22;46780;48.128;-1.704;2022-08-27T00:28:45;19.50;76.10
60909;DHT22;46780;48.128;-1.704;2022-08-27T00:31:12;19.40;76.10
60909;DHT22;46780;48.128;-1.704;2022-08-27T00:33:39;19.40;76.20
60909;DHT22;46780;48.128;-1.704;2022-08-27T00:36:06;19.40;76.20
60909;DHT22;46780;48.128;-1.704;2022-08-27T00:38:35;19.40;76.20
60909;DHT22;46780;48.128;-1.704;2022-08-27T00:41:02;19.40;76.20
60909;DHT22;46780;48.128;-1.704;2022-08-27T00:43:41;19.40;76.20
60909;DHT22;46780;48.128;-1.704;2022-08-27T00:46:18;19.40;76.20
60909;DHT22;46780;48.128;-1.704;2022-08-27T00:48:47;19.40;76.00
60909;DHT22;46780;48.128;-1.704;2022-08-27T00:51:14;19.40;76.00
60909;DHT22;46780;48.128;-1.704;2022-08-27T00:53:42;19.40;76.10
60909;DHT22;46780;48.128;-1.704;2022-08-27T00:56:13;19.40;76.20
60909;DHT22;46780;48.128;-1.704;2022-08-27T00:58:43;19.30;76.20
60909;DHT22;46780;48.128;-1.704;2022-08-27T01:01:14;19.30;76.20
60909;DHT22;46780;48.128;-1.704;2022-08-27T01:03:44;19.30;76.40
60909;DHT22;46780;48.128;-1.704;2022-08-27T01:06:13;19.30;76.50
60909;DHT22;46780;48.128;-1.704;2022-08-27T01:08:43;19.30;76.50
60909;DHT22;46780;48.128;-1.704;2022-08-27T01:11:11;19.20;76.30
60909;DHT22;46780;48.128;-1.704;2022-08-27T01:13:38;19.20;76.30
60909;DHT22;46780;48.128;-1.704;2022-08-27T01:16:06;19.20;76.40
60909;DHT22;46780;48.128;-1.704;2022-08-27T01:18:34;19.20;76.50
60909;DHT22;46780;48.128;-1.704;2022-08-27T01:21:06;19.20;76.50
60909;DHT22;46780;48.128;-1.704;2022-08-27T01:23:39;19.10;76.60
60909;DHT22;46780;48.128;-1.704;2022-08-27T01:26:12;19.10;76.70
60909;DHT22;46780;48.128;-1.704;2022-08-27T01:28:40;19.10;76.70
60909;DHT22;46780;48.128;-1.704;2022-08-27T01:31:08;19.00;76.80
60909;DHT22;46780;48.128;-1.704;2022-08-27T01:33:36;19.00;77.00
60909;DHT22;46780;48.128;-1.704;2022-08-27T01:36:04;19.00;77.20
60909;DHT22;46780;48.128;-1.704;2022-08-27T01:38:31;19.00;77.40
60909;DHT22;46780;48.128;-1.704;2022-08-27T01:40:58;19.00;77.30
60909;DHT22;46780;48.128;-1.704;2022-08-27T01:43:26;19.00;77.10
60909;DHT22;46780;48.128;-1.704;2022-08-27T01:45:53;19.00;77.00
60909;DHT22;46780;48.128;-1.704;2022-08-27T01:48:21;19.00;77.00
60909;DHT22;46780;48.128;-1.704;2022-08-27T01:50:48;19.00;77.10
60909;DHT22;46780;48.128;-1.704;2022-08-27T01:53:17;19.00;76.90
60909;DHT22;46780;48.128;-1.704;2022-08-27T01:55:45;19.00;76.90
60909;DHT22;46780;48.128;-1.704;2022-08-27T01:58:11;18.90;76.90
60909;DHT22;46780;48.128;-1.704;2022-08-27T02:00:42;18.90;76.90
60909;DHT22;46780;48.128;-1.704;2022-08-27T02:03:11;18.90;76.90
60909;DHT22;46780;48.128;-1.704;2022-08-27T02:05:38;18.90;76.90
60909;DHT22;46780;48.128;-1.704;2022-08-27T02:08:05;18.90;76.90
60909;DHT22;46780;48.128;-1.704;2022-08-27T02:10:35;18.90;76.90
60909;DHT22;46780;48.128;-1.704;2022-08-27T02:13:03;18.80;76.80
60909;DHT22;46780;48.128;-1.704;2022-08-27T02:15:29;18.80;77.00
60909;DHT22;46780;48.128;-1.704;2022-08-27T02:17:57;18.80;77.00
60909;DHT22;46780;48.128;-1.704;2022-08-27T02:20:24;18.80;76.90
60909;DHT22;46780;48.128;-1.704;2022-08-27T02:22:51;18.80;76.90
60909;DHT22;46780;48.128;-1.704;2022-08-27T02:25:18;18.70;76.80
60909;DHT22;46780;48.128;-1.704;2022-08-27T02:27:46;18.70;77.70
60909;DHT22;46780;48.128;-1.704;2022-08-27T02:30:15;18.70;77.00
60909;DHT22;46780;48.128;-1.704;2022-08-27T02:32:43;18.70;77.00
60909;DHT22;46780;48.128;-1.704;2022-08-27T02:35:11;18.70;76.90
60909;DHT22;46780;48.128;-1.704;2022-08-27T02:37:37;18.60;76.90
60909;DHT22;46780;48.128;-1.704;2022-08-27T02:40:04;18.60;77.00
60909;DHT22;46780;48.128;-1.704;2022-08-27T02:42:31;18.60;77.10
60909;DHT22;46780;48.128;-1.704;2022-08-27T02:44:57;18.60;77.10
60909;DHT22;46780;48.128;-1.704;2022-08-27T02:47:24;18.60;77.10
60909;DHT22;46780;48.128;-1.704;2022-08-27T02:49:50;18.60;77.20
60909;DHT22;46780;48.128;-1.704;2022-08-27T02:52:18;18.50;77.30
60909;DHT22;46780;48.128;-1.704;2022-08-27T02:54:45;18.50;77.40
60909;DHT22;46780;48.128;-1.704;2022-08-27T02:57:11;18.50;77.50
60909;DHT22;46780;48.128;-1.704;2022-08-27T02:59:37;18.50;77.70
60909;DHT22;46780;48.128;-1.704;2022-08-27T03:02:04;18.50;77.80
60909;DHT22;46780;48.128;-1.704;2022-08-27T03:04:30;18.50;77.80
60909;DHT22;46780;48.128;-1.704;2022-08-27T03:06:57;18.50;77.70
60909;DHT22;46780;48.128;-1.704;2022-08-27T03:09:25;18.50;77.60
60909;DHT22;46780;48.128;-1.704;2022-08-27T03:11:51;18.50;77.70
60909;DHT22;46780;48.128;-1.704;2022-08-27T03:14:17;18.40;77.70
60909;DHT22;46780;48.128;-1.704;2022-08-27T03:16:44;18.40;77.60
60909;DHT22;46780;48.128;-1.704;2022-08-27T03:19:10;18.40;77.60
60909;DHT22;46780;48.128;-1.704;2022-08-27T03:21:37;18.40;77.50
60909;DHT22;46780;48.128;-1.704;2022-08-27T03:24:04;18.40;77.70
60909;DHT22;46780;48.128;-1.704;2022-08-27T03:26:32;18.40;77.80
60909;DHT22;46780;48.128;-1.704;2022-08-27T03:28:58;18.30;78.00
60909;DHT22;46780;48.128;-1.704;2022-08-27T03:31:26;18.30;78.20
60909;DHT22;46780;48.128;-1.704;2022-08-27T03:33:55;18.30;78.30
60909;DHT22;46780;48.128;-1.704;2022-08-27T03:36:22;18.20;78.20
60909;DHT22;46780;48.128;-1.704;2022-08-27T03:38:49;18.20;78.40
60909;DHT22;46780;48.128;-1.704;2022-08-27T03:41:15;18.20;78.50
60909;DHT22;46780;48.128;-1.704;2022-08-27T03:43:43;18.20;78.70
60909;DHT22;46780;48.128;-1.704;2022-08-27T03:46:10;18.10;78.80
60909;DHT22;46780;48.128;-1.704;2022-08-27T03:48:36;18.10;79.00
60909;DHT22;46780;48.128;-1.704;2022-08-27T03:51:04;18.10;79.00
60909;DHT22;46780;48.128;-1.704;2022-08-27T03:53:31;18.10;79.00
60909;DHT22;46780;48.128;-1.704;2022-08-27T03:55:57;18.10;79.00
60909;DHT22;46780;48.128;-1.704;2022-08-27T03:58:24;18.10;78.90
60909;DHT22;46780;48.128;-1.704;2022-08-27T04:00:52;18.00;78.70
60909;DHT22;46780;48.128;-1.704;2022-08-27T04:03:18;18.00;78.60
60909;DHT22;46780;48.128;-1.704;2022-08-27T04:05:44;18.00;78.80
60909;DHT22;46780;48.128;-1.704;2022-08-27T04:08:11;18.00;79.00
60909;DHT22;46780;48.128;-1.704;2022-08-27T04:10:38;17.90;79.10
60909;DHT22;46780;48.128;-1.704;2022-08-27T04:13:05;17.90;79.10
60909;DHT22;46780;48.128;-1.704;2022-08-27T04:15:31;17.90;79.20
60909;DHT22;46780;48.128;-1.704;2022-08-27T04:17:59;17.80;79.10
60909;DHT22;46780;48.128;-1.704;2022-08-27T04:20:26;17.80;79.20
60909;DHT22;46780;48.128;-1.704;2022-08-27T04:22:52;17.80;79.30
60909;DHT22;46780;48.128;-1.704;2022-08-27T04:25:18;17.80;79.30
60909;DHT22;46780;48.128;-1.704;2022-08-27T04:27:45;17.80;79.20
60909;DHT22;46780;48.128;-1.704;2022-08-27T04:30:11;17.70;79.10
60909;DHT22;46780;48.128;-1.704;2022-08-27T04:32:38;17.70;79.00
60909;DHT22;46780;48.128;-1.704;2022-08-27T04:35:06;17.70;78.90
60909;DHT22;46780;48.128;-1.704;2022-08-27T04:37:33;17.60;78.90
60909;DHT22;46780;48.128;-1.704;2022-08-27T04:39:59;17.60;78.90
60909;DHT22;46780;48.128;-1.704;2022-08-27T04:42:26;17.60;79.10
60909;DHT22;46780;48.128;-1.704;2022-08-27T04:44:52;17.60;79.00
60909;DHT22;46780;48.128;-1.704;2022-08-27T04:47:19;17.50;78.90
60909;DHT22;46780;48.128;-1.704;2022-08-27T04:49:45;17.50;78.90
60909;DHT22;46780;48.128;-1.704;2022-08-27T04:52:14;17.60;78.90
60909;DHT22;46780;48.128;-1.704;2022-08-27T04:54:40;17.50;78.80
60909;DHT22;46780;48.128;-1.704;2022-08-27T04:57:07;17.50;78.70
60909;DHT22;46780;48.128;-1.704;2022-08-27T04:59:35;17.50;78.70
60909;DHT22;46780;48.128;-1.704;2022-08-27T05:02:03;17.50;78.70
60909;DHT22;46780;48.128;-1.704;2022-08-27T05:04:30;17.50;78.80
60909;DHT22;46780;48.128;-1.704;2022-08-27T05:06:57;17.50;78.80
60909;DHT22;46780;48.128;-1.704;2022-08-27T05:09:24;17.50;78.80
60909;DHT22;46780;48.128;-1.704;2022-08-27T05:11:51;17.40;78.90
60909;DHT22;46780;48.128;-1.704;2022-08-27T05:14:18;17.40;78.90
60909;DHT22;46780;48.128;-1.704;2022-08-27T05:16:44;17.40;78.90
60909;DHT22;46780;48.128;-1.704;2022-08-27T05:19:11;17.40;78.90
60909;DHT22;46780;48.128;-1.704;2022-08-27T05:21:43;17.40;78.90
60909;DHT22;46780;48.128;-1.704;2022-08-27T05:24:10;17.30;78.90
60909;DHT22;46780;48.128;-1.704;2022-08-27T05:26:38;17.30;79.00
60909;DHT22;46780;48.128;-1.704;2022-08-27T05:29:04;17.30;79.10
60909;DHT22;46780;48.128;-1.704;2022-08-27T05:31:31;17.30;79.20
60909;DHT22;46780;48.128;-1.704;2022-08-27T05:33:59;17.30;79.20
60909;DHT22;46780;48.128;-1.704;2022-08-27T05:36:27;17.30;79.40
60909;DHT22;46780;48.128;-1.704;2022-08-27T05:38:56;17.30;79.40
60909;DHT22;46780;48.128;-1.704;2022-08-27T05:41:26;17.20;79.40
60909;DHT22;46780;48.128;-1.704;2022-08-27T05:43:56;17.20;79.70
60909;DHT22;46780;48.128;-1.704;2022-08-27T05:46:24;17.20;79.90
60909;DHT22;46780;48.128;-1.704;2022-08-27T05:48:51;17.20;80.00
60909;DHT22;46780;48.128;-1.704;2022-08-27T05:51:20;17.10;80.20
60909;DHT22;46780;48.128;-1.704;2022-08-27T05:53:46;17.10;80.20
60909;DHT22;46780;48.128;-1.704;2022-08-27T05:56:15;17.20;81.30
60909;DHT22;46780;48.128;-1.704;2022-08-27T05:58:42;17.20;80.50
60909;DHT22;46780;48.128;-1.704;2022-08-27T06:01:10;17.20;80.50
60909;DHT22;46780;48.128;-1.704;2022-08-27T06:03:37;17.20;80.30
60909;DHT22;46780;48.128;-1.704;2022-08-27T06:06:05;17.20;80.30
60909;DHT22;46780;48.128;-1.704;2022-08-27T06:08:32;17.30;80.40
60909;DHT22;46780;48.128;-1.704;2022-08-27T06:10:59;17.20;80.30
60909;DHT22;46780;48.128;-1.704;2022-08-27T06:13:25;17.30;80.40
60909;DHT22;46780;48.128;-1.704;2022-08-27T06:15:59;17.30;80.30
60909;DHT22;46780;48.128;-1.704;2022-08-27T06:18:27;17.40;80.30
60909;DHT22;46780;48.128;-1.704;2022-08-27T06:20:54;17.40;80.30
60909;DHT22;46780;48.128;-1.704;2022-08-27T06:23:20;17.40;80.30
60909;DHT22;46780;48.128;-1.704;2022-08-27T06:25:47;17.40;80.30
60909;DHT22;46780;48.128;-1.704;2022-08-27T06:28:14;17.40;80.40
60909;DHT22;46780;48.128;-1.704;2022-08-27T06:30:40;17.50;80.40
60909;DHT22;46780;48.128;-1.704;2022-08-27T06:33:07;17.50;80.70
60909;DHT22;46780;48.128;-1.704;2022-08-27T06:35:36;17.50;80.80
60909;DHT22;46780;48.128;-1.704;2022-08-27T06:38:03;17.50;80.90
60909;DHT22;46780;48.128;-1.704;2022-08-27T06:40:29;17.50;80.90
60909;DHT22;46780;48.128;-1.704;2022-08-27T06:42:56;17.60;81.00
60909;DHT22;46780;48.128;-1.704;2022-08-27T06:45:22;17.60;81.00
60909;DHT22;46780;48.128;-1.704;2022-08-27T06:47:49;17.70;81.20
60909;DHT22;46780;48.128;-1.704;2022-08-27T06:50:16;17.70;81.30
60909;DHT22;46780;48.128;-1.704;2022-08-27T06:52:44;17.80;81.40
60909;DHT22;46780;48.128;-1.704;2022-08-27T06:55:10;17.80;81.50
60909;DHT22;46780;48.128;-1.704;2022-08-27T06:57:37;17.90;81.60
60909;DHT22;46780;48.128;-1.704;2022-08-27T07:00:04;17.90;81.50
60909;DHT22;46780;48.128;-1.704;2022-08-27T07:02:31;17.90;81.70
60909;DHT22;46780;48.128;-1.704;2022-08-27T07:04:58;18.00;81.70
60909;DHT22;46780;48.128;-1.704;2022-08-27T07:07:24;18.10;81.80
60909;DHT22;46780;48.128;-1.704;2022-08-27T07:09:52;18.10;81.70
60909;DHT22;46780;48.128;-1.704;2022-08-27T07:12:18;18.20;81.70
60909;DHT22;46780;48.128;-1.704;2022-08-27T07:14:45;18.30;81.60
60909;DHT22;46780;48.128;-1.704;2022-08-27T07:17:12;18.40;81.50
60909;DHT22;46780;48.128;-1.704;2022-08-27T07:19:38;18.40;81.40
60909;DHT22;46780;48.128;-1.704;2022-08-27T07:22:05;18.50;81.30
60909;DHT22;46780;48.128;-1.704;2022-08-27T07:24:31;18.60;81.10
60909;DHT22;46780;48.128;-1.704;2022-08-27T07:26:59;18.70;81.00
60909;DHT22;46780;48.128;-1.704;2022-08-27T07:29:26;18.70;80.70
60909;DHT22;46780;48.128;-1.704;2022-08-27T07:32:10;18.90;80.60
60909;DHT22;46780;48.128;-1.704;2022-08-27T07:34:37;19.00;80.30
60909;DHT22;46780;48.128;-1.704;2022-08-27T07:37:03;19.00;80.20
60909;DHT22;46780;48.128;-1.704;2022-08-27T07:39:30;19.10;80.00
60909;DHT22;46780;48.128;-1.704;2022-08-27T07:41:56;19.10;79.60
60909;DHT22;46780;48.128;-1.704;2022-08-27T07:44:25;19.20;79.30
60909;DHT22;46780;48.128;-1.704;2022-08-27T07:46:51;19.20;79.00
60909;DHT22;46780;48.128;-1.704;2022-08-27T07:49:18;19.30;78.80
60909;DHT22;46780;48.128;-1.704;2022-08-27T07:51:45;19.30;78.50
60909;DHT22;46780;48.128;-1.704;2022-08-27T07:54:12;19.40;78.50
60909;DHT22;46780;48.128;-1.704;2022-08-27T07:56:38;19.40;78.40
60909;DHT22;46780;48.128;-1.704;2022-08-27T07:59:05;19.50;78.20
60909;DHT22;46780;48.128;-1.704;2022-08-27T08:01:33;19.50;78.10
60909;DHT22;46780;48.128;-1.704;2022-08-27T08:04:00;19.60;77.90
60909;DHT22;46780;48.128;-1.704;2022-08-27T08:06:26;19.70;77.80
60909;DHT22;46780;48.128;-1.704;2022-08-27T08:08:53;19.70;77.50
60909;DHT22;46780;48.128;-1.704;2022-08-27T08:11:23;19.80;77.30
60909;DHT22;46780;48.128;-1.704;2022-08-27T08:13:49;19.90;78.10
60909;DHT22;46780;48.128;-1.704;2022-08-27T08:16:16;20.00;76.90
60909;DHT22;46780;48.128;-1.704;2022-08-27T08:18:44;20.00;76.70
60909;DHT22;46780;48.128;-1.704;2022-08-27T08:21:12;20.10;76.60
60909;DHT22;46780;48.128;-1.704;2022-08-27T08:23:40;20.20;76.50
60909;DHT22;46780;48.128;-1.704;2022-08-27T08:26:07;20.20;76.20
60909;DHT22;46780;48.128;-1.704;2022-08-27T08:28:34;20.30;76.10
60909;DHT22;46780;48.128;-1.704;2022-08-27T08:31:00;20.40;76.10
60909;DHT22;46780;48.128;-1.704;2022-08-27T08:33:27;20.50;75.70
60909;DHT22;46780;48.128;-1.704;2022-08-27T08:36:01;20.60;75.20
60909;DHT22;46780;48.128;-1.704;2022-08-27T08:38:28;20.80;75.00
60909;DHT22;46780;48.128;-1.704;2022-08-27T08:40:54;20.90;74.60
60909;DHT22;46780;48.128;-1.704;2022-08-27T08:43:33;21.10;74.00
60909;DHT22;46780;48.128;-1.704;2022-08-27T08:46:05;21.40;73.80
60909;DHT22;46780;48.128;-1.704;2022-08-27T08:48:34;21.80;73.10
60909;DHT22;46780;48.128;-1.704;2022-08-27T08:51:10;22.40;72.00
60909;DHT22;46780;48.128;-1.704;2022-08-27T08:53:43;23.00;69.70
60909;DHT22;46780;48.128;-1.704;2022-08-27T08:56:16;23.60;67.00
60909;DHT22;46780;48.128;-1.704;2022-08-27T08:58:48;24.20;64.20
60909;DHT22;46780;48.128;-1.704;2022-08-27T09:01:18;24.80;61.80
60909;DHT22;46780;48.128;-1.704;2022-08-27T09:03:51;25.30;59.40
60909;DHT22;46780;48.128;-1.704;2022-08-27T09:06:25;25.80;57.70
60909;DHT22;46780;48.128;-1.704;2022-08-27T09:08:54;26.30;56.10
60909;DHT22;46780;48.128;-1.704;2022-08-27T09:11:26;26.70;53.90
60909;DHT22;46780;48.128;-1.704;2022-08-27T09:13:59;27.00;52.30
60909;DHT22;46780;48.128;-1.704;2022-08-27T09:16:26;27.30;51.20
60909;DHT22;46780;48.128;-1.704;2022-08-27T09:18:53;27.60;49.60
60909;DHT22;46780;48.128;-1.704;2022-08-27T09:21:28;27.90;48.60
60909;DHT22;46780;48.128;-1.704;2022-08-27T09:24:04;28.00;47.80
60909;DHT22;46780;48.128;-1.704;2022-08-27T09:26:33;28.20;46.50
60909;DHT22;46780;48.128;-1.704;2022-08-27T09:29:02;28.40;46.80
60909;DHT22;46780;48.128;-1.704;2022-08-27T09:31:29;28.40;45.20
60909;DHT22;46780;48.128;-1.704;2022-08-27T09:33:55;28.50;45.20
60909;DHT22;46780;48.128;-1.704;2022-08-27T09:36:24;28.80;44.50
60909;DHT22;46780;48.128;-1.704;2022-08-27T09:38:52;29.00;43.80
60909;DHT22;46780;48.128;-1.704;2022-08-27T09:41:22;29.20;43.60
60909;DHT22;46780;48.128;-1.704;2022-08-27T09:43:56;29.30;43.40
60909;DHT22;46780;48.128;-1.704;2022-08-27T09:46:24;29.60;42.70
60909;DHT22;46780;48.128;-1.704;2022-08-27T09:48:50;29.90;41.80
60909;DHT22;46780;48.128;-1.704;2022-08-27T09:51:20;30.00;41.10
60909;DHT22;46780;48.128;-1.704;2022-08-27T09:53:52;30.30;40.40
60909;DHT22;46780;48.128;-1.704;2022-08-27T09:56:27;30.30;39.90
60909;DHT22;46780;48.128;-1.704;2022-08-27T09:59:01;30.40;39.30
60909;DHT22;46780;48.128;-1.704;2022-08-27T10:01:31;30.50;38.80
60909;DHT22;46780;48.128;-1.704;2022-08-27T10:04:07;30.70;38.70
60909;DHT22;46780;48.128;-1.704;2022-08-27T10:06:34;31.00;37.90
60909;DHT22;46780;48.128;-1.704;2022-08-27T10:09:07;31.10;37.80
60909;DHT22;46780;48.128;-1.704;2022-08-27T10:11:38;31.20;37.40
60909;DHT22;46780;48.128;-1.704;2022-08-27T10:14:10;31.30;37.50
60909;DHT22;46780;48.128;-1.704;2022-08-27T10:16:59;31.40;37.00
60909;DHT22;46780;48.128;-1.704;2022-08-27T10:19:46;31.60;35.90
60909;DHT22;46780;48.128;-1.704;2022-08-27T10:22:25;31.70;35.20
60909;DHT22;46780;48.128;-1.704;2022-08-27T10:25:02;31.80;34.50
60909;DHT22;46780;48.128;-1.704;2022-08-27T10:27:38;31.90;33.80
60909;DHT22;46780;48.128;-1.704;2022-08-27T10:30:11;32.00;33.50
60909;DHT22;46780;48.128;-1.704;2022-08-27T10:32:55;32.20;33.30
60909;DHT22;46780;48.128;-1.704;2022-08-27T10:35:26;32.40;33.00
60909;DHT22;46780;48.128;-1.704;2022-08-27T10:38:05;32.50;32.70
60909;DHT22;46780;48.128;-1.704;2022-08-27T10:40:40;32.70;32.00
60909;DHT22;46780;48.128;-1.704;2022-08-27T10:43:21;32.80;31.80
60909;DHT22;46780;48.128;-1.704;2022-08-27T10:45:58;33.00;31.30
60909;DHT22;46780;48.128;-1.704;2022-08-27T10:48:33;33.00;31.30
60909;DHT22;46780;48.128;-1.704;2022-08-27T10:51:04;33.10;30.80
60909;DHT22;46780;48.128;-1.704;2022-08-27T10:53:38;33.20;30.80
60909;DHT22;46780;48.128;-1.704;2022-08-27T10:56:19;33.30;30.30
60909;DHT22;46780;48.128;-1.704;2022-08-27T10:58:58;33.40;30.30
60909;DHT22;46780;48.128;-1.704;2022-08-27T11:01:36;33.50;31.40
60909;DHT22;46780;48.128;-1.704;2022-08-27T11:04:07;33.70;30.10
60909;DHT22;46780;48.128;-1.704;2022-08-27T11:06:38;33.80;29.30
60909;DHT22;46780;48.128;-1.704;2022-08-27T11:09:12;33.80;29.30
60909;DHT22;46780;48.128;-1.704;2022-08-27T11:11:45;33.80;29.00
60909;DHT22;46780;48.128;-1.704;2022-08-27T11:14:20;33.90;28.70
60909;DHT22;46780;48.128;-1.704;2022-08-27T11:16:54;34.00;28.10
60909;DHT22;46780;48.128;-1.704;2022-08-27T11:19:26;34.10;28.00
60909;DHT22;46780;48.128;-1.704;2022-08-27T11:22:02;34.10;28.00
60909;DHT22;46780;48.128;-1.704;2022-08-27T11:24:35;34.00;28.00
60909;DHT22;46780;48.128;-1.704;2022-08-27T11:27:06;34.00;27.70
60909;DHT22;46780;48.128;-1.704;2022-08-27T11:29:37;34.00;27.40
60909;DHT22;46780;48.128;-1.704;2022-08-27T11:32:09;34.10;27.20
60909;DHT22;46780;48.128;-1.704;2022-08-27T11:34:38;34.40;27.30
60909;DHT22;46780;48.128;-1.704;2022-08-27T11:37:18;34.60;27.30
60909;DHT22;46780;48.128;-1.704;2022-08-27T11:39:56;34.90;26.80
60909;DHT22;46780;48.128;-1.704;2022-08-27T11:42:34;35.00;25.70
60909;DHT22;46780;48.128;-1.704;2022-08-27T11:45:05;35.10;25.20
60909;DHT22;46780;48.128;-1.704;2022-08-27T11:47:33;35.20;25.10
60909;DHT22;46780;48.128;-1.704;2022-08-27T11:50:01;35.30;25.00
60909;DHT22;46780;48.128;-1.704;2022-08-27T11:52:34;35.50;25.10
60909;DHT22;46780;48.128;-1.704;2022-08-27T11:55:13;35.50;25.10
60909;DHT22;46780;48.128;-1.704;2022-08-27T11:58:03;35.60;25.20
60909;DHT22;46780;48.128;-1.704;2022-08-27T12:00:31;35.60;24.60
60909;DHT22;46780;48.128;-1.704;2022-08-27T12:02:59;35.50;24.00
60909;DHT22;46780;48.128;-1.704;2022-08-27T12:05:38;35.40;24.40
60909;DHT22;46780;48.128;-1.704;2022-08-27T12:08:18;35.40;24.70
60909;DHT22;46780;48.128;-1.704;2022-08-27T12:11:00;35.60;24.80
60909;DHT22;46780;48.128;-1.704;2022-08-27T12:13:33;35.70;24.70
60909;DHT22;46780;48.128;-1.704;2022-08-27T12:16:13;35.80;24.90
60909;DHT22;46780;48.128;-1.704;2022-08-27T12:18:55;35.90;24.70
60909;DHT22;46780;48.128;-1.704;2022-08-27T12:21:29;36.00;24.10
60909;DHT22;46780;48.128;-1.704;2022-08-27T12:24:14;36.00;23.90
60909;DHT22;46780;48.128;-1.704;2022-08-27T12:26:54;35.90;23.60
60909;DHT22;46780;48.128;-1.704;2022-08-27T12:29:26;36.00;24.20
60909;DHT22;46780;48.128;-1.704;2022-08-27T12:32:00;36.10;24.30
60909;DHT22;46780;48.128;-1.704;2022-08-27T12:34:28;36.20;24.30
60909;DHT22;46780;48.128;-1.704;2022-08-27T12:36:57;36.30;24.10
60909;DHT22;46780;48.128;-1.704;2022-08-27T12:39:27;36.30;24.00
60909;DHT22;46780;48.128;-1.704;2022-08-27T12:41:54;36.30;23.80
60909;DHT22;46780;48.128;-1.704;2022-08-27T12:44:27;36.40;23.60
60909;DHT22;46780;48.128;-1.704;2022-08-27T12:46:58;36.30;23.60
60909;DHT22;46780;48.128;-1.704;2022-08-27T12:49:28;36.30;23.70
60909;DHT22;46780;48.128;-1.704;2022-08-27T12:51:57;36.30;24.00
60909;DHT22;46780;48.128;-1.704;2022-08-27T12:54:35;36.20;24.10
60909;DHT22;46780;48.128;-1.704;2022-08-27T12:57:10;36.20;24.30
60909;DHT22;46780;48.128;-1.704;2022-08-27T12:59:55;36.00;24.20
60909;DHT22;46780;48.128;-1.704;2022-08-27T13:02:40;35.80;24.60
60909;DHT22;46780;48.128;-1.704;2022-08-27T13:05:12;35.70;24.70
60909;DHT22;46780;48.128;-1.704;2022-08-27T13:07:45;35.50;24.80
60909;DHT22;46780;48.128;-1.704;2022-08-27T13:10:14;35.40;25.10
60909;DHT22;46780;48.128;-1.704;2022-08-27T13:12:42;35.30;25.00
60909;DHT22;46780;48.128;-1.704;2022-08-27T13:15:12;35.20;24.90
60909;DHT22;46780;48.128;-1.704;2022-08-27T13:17:41;35.10;25.20
60909;DHT22;46780;48.128;-1.704;2022-08-27T13:20:14;35.10;25.40
60909;DHT22;46780;48.128;-1.704;2022-08-27T13:22:41;35.10;26.20
60909;DHT22;46780;48.128;-1.704;2022-08-27T13:25:19;35.10;25.20
60909;DHT22;46780;48.128;-1.704;2022-08-27T13:27:51;35.10;25.00
60909;DHT22;46780;48.128;-1.704;2022-08-27T13:30:20;35.00;25.20
60909;DHT22;46780;48.128;-1.704;2022-08-27T13:32:48;35.10;25.40
60909;DHT22;46780;48.128;-1.704;2022-08-27T13:35:15;35.10;25.40
60909;DHT22;46780;48.128;-1.704;2022-08-27T13:37:44;35.10;25.20
60909;DHT22;46780;48.128;-1.704;2022-08-27T13:40:22;35.10;25.10
60909;DHT22;46780;48.128;-1.704;2022-08-27T13:42:49;35.10;24.70
60909;DHT22;46780;48.128;-1.704;2022-08-27T13:45:16;35.10;24.50
60909;DHT22;46780;48.128;-1.704;2022-08-27T13:47:45;35.00;24.20
60909;DHT22;46780;48.128;-1.704;2022-08-27T13:50:19;35.00;24.20
60909;DHT22;46780;48.128;-1.704;2022-08-27T13:52:46;34.90;23.80
60909;DHT22;46780;48.128;-1.704;2022-08-27T13:55:15;34.80;23.90
60909;DHT22;46780;48.128;-1.704;2022-08-27T13:57:43;34.70;23.80
60909;DHT22;46780;48.128;-1.704;2022-08-27T14:00:15;34.40;23.80
60909;DHT22;46780;48.128;-1.704;2022-08-27T14:02:42;34.30;24.50
60909;DHT22;46780;48.128;-1.704;2022-08-27T14:05:12;34.20;24.80
60909;DHT22;46780;48.128;-1.704;2022-08-27T14:07:44;34.00;24.70
60909;DHT22;46780;48.128;-1.704;2022-08-27T14:10:25;33.90;24.90
60909;DHT22;46780;48.128;-1.704;2022-08-27T14:12:57;33.70;25.10
60909;DHT22;46780;48.128;-1.704;2022-08-27T14:15:34;33.50;25.40
60909;DHT22;46780;48.128;-1.704;2022-08-27T14:18:02;33.30;25.50
60909;DHT22;46780;48.128;-1.704;2022-08-27T14:20:30;33.00;25.50
60909;DHT22;46780;48.128;-1.704;2022-08-27T14:22:57;32.80;25.50
60909;DHT22;46780;48.128;-1.704;2022-08-27T14:25:24;32.60;25.70
60909;DHT22;46780;48.128;-1.704;2022-08-27T14:27:52;32.30;25.70
60909;DHT22;46780;48.128;-1.704;2022-08-27T14:30:21;32.10;26.00
60909;DHT22;46780;48.128;-1.704;2022-08-27T14:32:48;31.80;26.30
60909;DHT22;46780;48.128;-1.704;2022-08-27T14:35:15;31.70;26.40
60909;DHT22;46780;48.128;-1.704;2022-08-27T14:37:43;31.40;26.50
60909;DHT22;46780;48.128;-1.704;2022-08-27T14:40:12;31.30;26.60
60909;DHT22;46780;48.128;-1.704;2022-08-27T14:42:39;31.10;26.90
60909;DHT22;46780;48.128;-1.704;2022-08-27T14:45:06;30.90;27.00
60909;DHT22;46780;48.128;-1.704;2022-08-27T14:47:35;30.80;27.00
60909;DHT22;46780;48.128;-1.704;2022-08-27T14:50:03;30.60;27.40
60909;DHT22;46780;48.128;-1.704;2022-08-27T14:52:29;30.40;27.60
60909;DHT22;46780;48.128;-1.704;2022-08-27T14:54:57;30.20;28.20
60909;DHT22;46780;48.128;-1.704;2022-08-27T14:57:23;30.10;28.40
60909;DHT22;46780;48.128;-1.704;2022-08-27T14:59:50;30.00;28.70
60909;DHT22;46780;48.128;-1.704;2022-08-27T15:02:16;29.80;28.90
60909;DHT22;46780;48.128;-1.704;2022-08-27T15:04:43;29.70;29.30
60909;DHT22;46780;48.128;-1.704;2022-08-27T15:07:09;29.60;29.50
60909;DHT22;46780;48.128;-1.704;2022-08-27T15:09:36;29.60;29.70
60909;DHT22;46780;48.128;-1.704;2022-08-27T15:12:04;29.50;29.80
60909;DHT22;46780;48.128;-1.704;2022-08-27T15:14:32;29.50;30.00
60909;DHT22;46780;48.128;-1.704;2022-08-27T15:17:00;29.40;30.20
60909;DHT22;46780;48.128;-1.704;2022-08-27T15:19:28;29.40;30.40
60909;DHT22;46780;48.128;-1.704;2022-08-27T15:22:00;29.40;30.70
60909;DHT22;46780;48.128;-1.704;2022-08-27T15:24:38;29.30;30.70
60909;DHT22;46780;48.128;-1.704;2022-08-27T15:27:07;29.10;31.00
60909;DHT22;46780;48.128;-1.704;2022-08-27T15:29:33;29.10;31.20